Gloversville, New York
Current Conditions -  °F | °C
As of 5:55 PM on Saturday 25 Oct 2014 (Local Time) from KNY0 Reporting Station
Overcast Overcast  
Wind Chill: 57°   Ceiling: 6500
Heat Index: 57°   Visibility: 10mi
Dew Point: 43°   Wind: 5mph
Humidity: 60%   Direction: 190°S
Pressure: 29.55"   Gusts: NA
Location:  43.06°N, 74.34°W
Report Text: KNY0 252155Z AUTO 19004KT 10SM OVC065 14/06 A2955 RMK AO2 T01370061
Loading
Personal Weather Stations






























Interactive Weather Map
Tropical Storm Tracking
New forecast layout! Learn more

10-Day Weather Forecast

Advertisements
Track Severe Weather on mobile